Windom, MN

2:43 PM CDT on May 23, 2018 (GMT -0500)
Windom Municipal

Weather History for KMWM - April, 2013

Change the Weather History Date:

Wednesday, April 3, 2013

  Actual Average Record
Temperature  
Mean Temperature 37 °F -  
Max Temperature 53 °F 48 °F 78 °F (1981)
Min Temperature 21 °F 27 °F 3 °F (1998)
Degree Days  
Heating Degree Days 28    
Moisture  
Dew Point 25 °F    
Average Humidity 62    
Maximum Humidity 93    
Minimum Humidity 41    
Precipitation  
Precipitation 0.00 in - - ()
Sea Level Pressure  
Sea Level Pressure 30.22 in    
Wind  
Wind Speed 8 mph (SSE)    
Max Wind Speed 25 mph    
Max Gust Speed 33 mph    
Visibility 10 miles    
Events      
Averages and records for this station are not official NWS values.
T = Trace of Precipitation, MM = Missing Value Source: NWS Daily Summary

Daily Weather History Graph

Daily Weather History Graph

Search for Another Location

Airport or City:

Astronomy

Apr. 03, 2013 Rise Set
Actual Time 6:57 AM CDT 7:50 PM CDT
Civil Twilight 6:28 AM CDT 8:19 PM CDT
Nautical Twilight 5:53 AM CDT 8:54 PM CDT
Astronomical Twilight 5:17 AM CDT 9:30 PM CDT
Moon 2:52 AM CDT (4/3) 12:50 PM CDT (4/3)
Length of Visible Light 13h 50m
Length of Day
12h 52m
Last Quarter, 44% of the Moon is Illuminated
Apr 3
Last Quarter
Apr 10
New
Apr 18
First Quarter
Apr 25
Full
May 2
Last Quarter

Hourly Weather History & Observations

Time (CDT) Temp. Windchill Dew Point Humidity Pressure Visibility Wind Dir Wind Speed Gust Speed Precip Events Conditions
12:12 AM 24.8 °F - 21.2 °F 86% 30.32 in 10.0 mi Calm Calm - N/A   Clear
12:33 AM 24.8 °F - 21.2 °F 86% 30.32 in 10.0 mi Calm Calm - N/A   Clear
12:52 AM 24.8 °F - 21.2 °F 86% 30.32 in 10.0 mi Calm Calm - N/A   Clear
1:12 AM 24.8 °F - 19.4 °F 80% 30.33 in 10.0 mi Calm Calm - N/A   Clear
1:32 AM 24.8 °F - 19.4 °F 80% 30.33 in 10.0 mi Calm Calm - N/A   Clear
1:53 AM 24.8 °F - 19.4 °F 80% 30.33 in 10.0 mi Calm Calm - N/A   Clear
2:08 AM 23.0 °F - 19.4 °F 86% 30.33 in 10.0 mi Calm Calm - N/A   Clear
2:32 AM 21.2 °F - 19.4 °F 93% 30.33 in 10.0 mi Calm Calm - N/A   Clear
2:53 AM 24.8 °F - 19.4 °F 80% 30.33 in 10.0 mi Calm Calm - N/A   Clear
3:12 AM 24.8 °F - 19.4 °F 80% 30.33 in 10.0 mi Calm Calm - N/A   Clear
3:32 AM 23.0 °F 18.4 °F 17.6 °F 80% 30.33 in 10.0 mi ESE 3.5 mph - N/A   Clear
3:53 AM 23.0 °F - 17.6 °F 80% 30.33 in 10.0 mi Calm Calm - N/A   Clear
4:03 AM 23.0 °F - 17.6 °F 80% 30.32 in 10.0 mi Calm Calm - N/A   Clear
4:32 AM 23.0 °F 17.0 °F 17.6 °F 80% 30.32 in 10.0 mi SE 4.6 mph - N/A   Clear
4:53 AM 23.0 °F - 17.6 °F 80% 30.33 in 10.0 mi Calm Calm - N/A   Clear
5:12 AM 23.0 °F 18.4 °F 17.6 °F 80% 30.33 in 10.0 mi SE 3.5 mph - N/A   Clear
5:32 AM 23.0 °F 17.0 °F 17.6 °F 80% 30.32 in 10.0 mi SE 4.6 mph - N/A   Clear
5:53 AM 21.2 °F 16.4 °F 17.6 °F 86% 30.32 in 10.0 mi SE 3.5 mph - N/A   Clear
6:12 AM 23.0 °F 18.4 °F 17.6 °F 80% 30.32 in 10.0 mi SE 3.5 mph - N/A   Clear
6:23 AM 23.0 °F 17.0 °F 17.6 °F 80% 30.32 in 10.0 mi SSE 4.6 mph - N/A   Clear
6:49 AM 24.8 °F 16.1 °F 19.4 °F 80% 30.32 in 10.0 mi SSE 8.1 mph - N/A   Clear
7:13 AM 24.8 °F 15.3 °F 19.4 °F 80% 30.32 in 10.0 mi SSE 9.2 mph - N/A   Clear
7:30 AM 26.6 °F 16.8 °F 19.4 °F 74% 30.33 in 10.0 mi SSE 10.4 mph - N/A   Clear
7:52 AM 26.6 °F 19.1 °F 21.2 °F 80% 30.32 in 10.0 mi SE 6.9 mph - N/A   Clear
8:13 AM 28.4 °F 19.7 °F 21.2 °F 74% 30.31 in 10.0 mi SSE 9.2 mph - N/A   Clear
8:32 AM 30.2 °F 20.8 °F 21.2 °F 69% 30.31 in 10.0 mi SSE 11.5 mph 17.3 mph N/A   Clear
8:52 AM 30.2 °F 19.8 °F 23.0 °F 75% 30.30 in 10.0 mi SSE 13.8 mph 18.4 mph N/A   Clear
9:12 AM 32.0 °F 21.6 °F 21.2 °F 64% 30.30 in 10.0 mi SSE 15.0 mph - N/A   Clear
9:32 AM 33.8 °F 24.3 °F 21.2 °F 60% 30.30 in 10.0 mi SSE 13.8 mph 17.3 mph N/A   Clear
9:53 AM 35.6 °F 26.6 °F 23.0 °F 60% 30.29 in 10.0 mi SSE 13.8 mph 19.6 mph N/A   Clear
10:12 AM 37.4 °F 27.8 °F 24.8 °F 60% 30.28 in 10.0 mi SSE 17.3 mph 20.7 mph N/A   Clear
10:32 AM 37.4 °F 28.5 °F 24.8 °F 60% 30.27 in 10.0 mi SSE 15.0 mph - N/A   Clear
10:53 AM 39.2 °F 30.5 °F 24.8 °F 56% 30.26 in 10.0 mi SSE 16.1 mph - N/A   Clear
11:12 AM 39.2 °F 30.2 °F 24.8 °F 56% 30.26 in 10.0 mi SSE 17.3 mph 21.9 mph N/A   Clear
11:32 AM 41.0 °F 31.6 °F 24.8 °F 53% 30.25 in 10.0 mi SSE 20.7 mph 27.6 mph N/A   Clear
11:53 AM 42.8 °F 34.3 °F 24.8 °F 49% 30.24 in 10.0 mi SSE 19.6 mph 24.2 mph N/A   Clear
12:12 PM 42.8 °F 34.5 °F 26.6 °F 53% 30.24 in 10.0 mi South 18.4 mph 28.8 mph N/A   Clear
12:32 PM 42.8 °F 34.5 °F 26.6 °F 53% 30.23 in 10.0 mi SSE 18.4 mph 28.8 mph N/A   Clear
12:53 PM 44.6 °F 36.1 °F 26.6 °F 49% 30.22 in 10.0 mi South 21.9 mph 27.6 mph N/A   Clear
1:12 PM 44.6 °F 37.2 °F 26.6 °F 49% 30.22 in 10.0 mi South 17.3 mph 29.9 mph N/A   Clear
1:32 PM 44.6 °F 35.5 °F 28.4 °F 53% 30.21 in 10.0 mi SSE 25.3 mph 32.2 mph N/A   Clear
1:53 PM 46.4 °F 38.7 °F 28.4 °F 50% 30.21 in 10.0 mi South 20.7 mph 28.8 mph N/A   Clear
2:12 PM 46.4 °F 39.2 °F 28.4 °F 50% 30.20 in 10.0 mi SSE 18.4 mph 29.9 mph N/A   Clear
2:32 PM 48.2 °F - 30.2 °F 50% 30.19 in 10.0 mi South 20.7 mph 26.5 mph N/A   Clear
2:53 PM 48.2 °F - 30.2 °F 50% 30.18 in 10.0 mi South 21.9 mph 27.6 mph N/A   Clear
3:12 PM 50.0 °F - 30.2 °F 47% 30.17 in 10.0 mi South 19.6 mph 28.8 mph N/A   Clear
3:33 PM 51.8 °F - 30.2 °F 44% 30.16 in 10.0 mi South 19.6 mph 31.1 mph N/A   Clear
3:52 PM 51.8 °F - 30.2 °F 44% 30.16 in 10.0 mi South 19.6 mph 29.9 mph N/A   Clear
4:12 PM 51.8 °F - 30.2 °F 44% 30.15 in 10.0 mi South 24.2 mph 33.4 mph N/A   Clear
4:33 PM 53.6 °F - 30.2 °F 41% 30.14 in 10.0 mi South 23.0 mph 31.1 mph N/A   Clear
4:52 PM 53.6 °F - 30.2 °F 41% 30.14 in 10.0 mi South 20.7 mph 27.6 mph N/A   Clear
5:12 PM 53.6 °F - 30.2 °F 41% 30.13 in 10.0 mi South 18.4 mph 31.1 mph N/A   Clear
5:33 PM 53.6 °F - 30.2 °F 41% 30.12 in 10.0 mi South 20.7 mph - N/A   Clear
5:52 PM 53.6 °F - 30.2 °F 41% 30.12 in 10.0 mi South 21.9 mph 28.8 mph N/A   Clear
6:12 PM 51.8 °F - 30.2 °F 44% 30.11 in 10.0 mi South 18.4 mph 27.6 mph N/A   Clear
6:27 PM 51.8 °F - 30.2 °F 44% 30.11 in 10.0 mi South 19.6 mph 27.6 mph N/A   Clear
6:52 PM 51.8 °F - 30.2 °F 44% 30.11 in 10.0 mi South 17.3 mph 25.3 mph N/A   Clear
7:12 PM 51.8 °F - 30.2 °F 44% 30.10 in 10.0 mi South 16.1 mph 27.6 mph N/A   Clear
7:33 PM 48.2 °F - 30.2 °F 50% 30.10 in 10.0 mi South 15.0 mph 20.7 mph N/A   Clear
7:52 PM 48.2 °F - 32.0 °F 54% 30.10 in 10.0 mi South 13.8 mph - N/A   Clear
8:12 PM 46.4 °F 39.8 °F 32.0 °F 57% 30.10 in 10.0 mi South 16.1 mph 20.7 mph N/A   Clear
8:33 PM 46.4 °F 40.1 °F 30.2 °F 53% 30.10 in 10.0 mi South 15.0 mph - N/A   Clear
8:52 PM 44.6 °F 37.4 °F 30.2 °F 57% 30.10 in 10.0 mi South 16.1 mph 24.2 mph N/A   Clear
9:12 PM 44.6 °F 36.6 °F 30.2 °F 57% 30.10 in 10.0 mi South 19.6 mph 25.3 mph N/A   Clear
9:33 PM 44.6 °F 36.4 °F 30.2 °F 57% 30.09 in 10.0 mi South 20.7 mph 25.3 mph N/A   Clear
9:52 PM 44.6 °F 37.2 °F 30.2 °F 57% 30.09 in 10.0 mi South 17.3 mph 24.2 mph N/A   Clear
10:12 PM 44.6 °F 37.2 °F 28.4 °F 53% 30.08 in 10.0 mi South 17.3 mph 24.2 mph N/A   Clear
10:33 PM 44.6 °F 37.4 °F 28.4 °F 53% 30.08 in 10.0 mi South 16.1 mph 21.9 mph N/A   Clear
10:52 PM 44.6 °F 37.4 °F 28.4 °F 53% 30.08 in 10.0 mi South 16.1 mph 25.3 mph N/A   Clear
11:12 PM 44.6 °F 36.6 °F 28.4 °F 53% 30.07 in 10.0 mi South 19.6 mph 27.6 mph N/A   Clear
11:33 PM 42.8 °F 34.5 °F 28.4 °F 57% 30.07 in 10.0 mi South 18.4 mph 28.8 mph N/A   Clear
11:52 PM 42.8 °F 34.8 °F 28.4 °F 57% 30.07 in 10.0 mi South 17.3 mph 24.2 mph N/A   Clear